Aérodrome :
LOGIN :

S'inscrire | Disclaimer

   EN    FR    IT 

 










Légende :    VFR   VFR Marginal   IFR   IFR Intensif   IFR Très Intensif
Visi : 
Plafond : 
>= 8 km
>= 3000ft
5 à 8 km
1000 à 3000 ft
1500m à 5 km
500 à 1000 ft
800 à 1500m
200 à 500 ft
< 800m
< 200 ft
Symboles :   Orages  Brouillard  Fortes neiges  Fortes précipitations  Vent > 20 kt
SIGMETs :   Divers  Orages  Givrage  Turbulence  Onde Orograph.  Cendres Volcan.






- Altitude de l'aérodrome : 844 ft
- Code IATA : OSR


LKMT - Ostrava-Mosnov

DERNIER METAR :
  • 020600Z 22003KT 0200 R22/0450N R04/0400N FG VV002 03/03 Q1009 NOSIG

METARs EXPIRÉS :
  • 020530Z 22003KT 0200 R22/0550U R04/0375N FG VV002 04/04 Q1009 NOSIG
  • 020500Z VRB02KT 0200 R22/0500N R04/0400U FG VV002 04/04 Q1009 NOSIG
  • 020430Z 26003KT 0200 R22/0300N R04/0600N FG VV002 04/04 Q1009 NOSIG
  • 012100Z VRB02KT 3000 BR OVC033 09/08 Q1009 NOSIG
  • 020400Z 00000KT 0200 R22/0375N R04/0400N FG VV002 04/04 Q1008 NOSIG
  • 020330Z VRB01KT 0200 R22/0250N R04/0600D FG VV001 05/05 Q1008 NOSIG
  • 020300Z 27003KT 220V320 0200 R22/0450N R04/0350N FG VV001 05/05 Q1008 NOSIG
  • 020230Z VRB02KT 0200 R22/0325N R04/0300N FG VV002 04/04 Q1008 NOSIG
  • 020200Z VRB01KT 0200 R22/0300N R04/0350N FG VV002 06/06 Q1008 NOSIG
  • 020130Z VRB02KT 0200 R22/0300N R04/0275N FG VV002 06/06 Q1009 NOSIG
  • 020100Z VRB01KT 0200 R22/0375N R04/0400N FG BKN003 06/06 Q1008 NOSIG

TAF TAF LKMT
Valide du 02 à 06h jusqu'au 03 à 06h UTC


020500Z 0206/0306 26003KT 0200 FG VV002
TEMPO 0206/0208 VRB02KT 1000 BR OVC005
TEMPO 0208/0210 08004KT 5000 BR BKN010
BECMG 0210/0212 9999 BKN020
TEMPO 0212/0214 -RA OVC015
BECMG 0216/0218 20006KT BKN030
TEMPO 0302/0306 3000 BR OVC010



MET'MAP, la Météo Aéronautique d'un coup d'oeil ! - Copyright ORBIFLY Décembre 2007 - Disclaimer

ORBIFLY MET'MAP TEAM :

Programmation & Développement : Alexandra Zaïnal
Sur une idée originale de : Baudouin d'Aumeries
Soutien technique & logistique : Manuel Goepfert
Assistance : Marc-Olivier Méhu




SOURCES & CREDITS :

   NOAA